sensor_id;sensor_type;location;lat;lon;timestamp;P1;durP1;ratioP1;P2;durP2;ratioP2
54539;SDS011;40438;52.992;18.604;2023-07-31T00:00:51;3.85;;;3.22;;
54539;SDS011;40438;52.992;18.604;2023-07-31T00:03:17;5.80;;;3.30;;
54539;SDS011;40438;52.992;18.604;2023-07-31T00:05:43;6.00;;;3.35;;
54539;SDS011;40438;52.992;18.604;2023-07-31T00:08:11;6.28;;;3.28;;
54539;SDS011;40438;52.992;18.604;2023-07-31T00:10:36;4.88;;;2.72;;
54539;SDS011;40438;52.992;18.604;2023-07-31T00:13:02;4.85;;;2.85;;
54539;SDS011;40438;52.992;18.604;2023-07-31T00:15:28;4.38;;;2.90;;
54539;SDS011;40438;52.992;18.604;2023-07-31T00:17:54;3.47;;;2.70;;
54539;SDS011;40438;52.992;18.604;2023-07-31T00:20:20;8.10;;;3.10;;
54539;SDS011;40438;52.992;18.604;2023-07-31T00:22:45;9.27;;;4.05;;
54539;SDS011;40438;52.992;18.604;2023-07-31T00:25:13;3.95;;;2.38;;
54539;SDS011;40438;52.992;18.604;2023-07-31T00:27:39;3.88;;;2.58;;
54539;SDS011;40438;52.992;18.604;2023-07-31T00:30:05;5.03;;;2.75;;
54539;SDS011;40438;52.992;18.604;2023-07-31T00:32:32;7.57;;;2.90;;
54539;SDS011;40438;52.992;18.604;2023-07-31T00:34:59;6.57;;;2.60;;
54539;SDS011;40438;52.992;18.604;2023-07-31T00:37:24;4.70;;;2.50;;
54539;SDS011;40438;52.992;18.604;2023-07-31T00:39:50;5.25;;;2.50;;
54539;SDS011;40438;52.992;18.604;2023-07-31T00:42:17;7.82;;;2.70;;
54539;SDS011;40438;52.992;18.604;2023-07-31T00:44:43;5.85;;;2.50;;
54539;SDS011;40438;52.992;18.604;2023-07-31T00:47:09;3.17;;;2.53;;
54539;SDS011;40438;52.992;18.604;2023-07-31T00:49:35;2.95;;;2.08;;
54539;SDS011;40438;52.992;18.604;2023-07-31T00:52:00;4.95;;;2.05;;
54539;SDS011;40438;52.992;18.604;2023-07-31T00:54:26;2.22;;;2.00;;
54539;SDS011;40438;52.992;18.604;2023-07-31T00:56:52;6.55;;;2.13;;
54539;SDS011;40438;52.992;18.604;2023-07-31T00:59:22;8.43;;;2.72;;
54539;SDS011;40438;52.992;18.604;2023-07-31T01:01:48;3.42;;;2.28;;
54539;SDS011;40438;52.992;18.604;2023-07-31T01:04:14;3.13;;;2.15;;
54539;SDS011;40438;52.992;18.604;2023-07-31T01:06:44;2.60;;;2.05;;
54539;SDS011;40438;52.992;18.604;2023-07-31T01:09:16;2.67;;;2.20;;
54539;SDS011;40438;52.992;18.604;2023-07-31T01:11:48;4.13;;;2.10;;
54539;SDS011;40438;52.992;18.604;2023-07-31T01:14:22;5.60;;;2.30;;
54539;SDS011;40438;52.992;18.604;2023-07-31T01:16:48;2.42;;;1.90;;
54539;SDS011;40438;52.992;18.604;2023-07-31T01:19:14;4.55;;;2.25;;
54539;SDS011;40438;52.992;18.604;2023-07-31T01:21:57;4.68;;;2.33;;
54539;SDS011;40438;52.992;18.604;2023-07-31T01:24:40;8.38;;;2.28;;
54539;SDS011;40438;52.992;18.604;2023-07-31T01:27:14;4.95;;;2.30;;
54539;SDS011;40438;52.992;18.604;2023-07-31T01:29:43;2.47;;;2.10;;
54539;SDS011;40438;52.992;18.604;2023-07-31T01:32:14;6.57;;;2.28;;
54539;SDS011;40438;52.992;18.604;2023-07-31T01:34:43;6.03;;;2.20;;
54539;SDS011;40438;52.992;18.604;2023-07-31T01:37:10;3.92;;;2.63;;
54539;SDS011;40438;52.992;18.604;2023-07-31T01:39:35;5.97;;;2.42;;
54539;SDS011;40438;52.992;18.604;2023-07-31T01:42:01;4.38;;;2.00;;
54539;SDS011;40438;52.992;18.604;2023-07-31T01:44:28;6.25;;;2.20;;
54539;SDS011;40438;52.992;18.604;2023-07-31T01:46:54;3.90;;;2.50;;
54539;SDS011;40438;52.992;18.604;2023-07-31T01:49:20;6.03;;;2.20;;
54539;SDS011;40438;52.992;18.604;2023-07-31T01:51:46;5.40;;;2.58;;
54539;SDS011;40438;52.992;18.604;2023-07-31T01:54:12;2.85;;;2.42;;
54539;SDS011;40438;52.992;18.604;2023-07-31T01:56:38;4.00;;;2.40;;
54539;SDS011;40438;52.992;18.604;2023-07-31T01:59:03;6.55;;;2.67;;
54539;SDS011;40438;52.992;18.604;2023-07-31T02:01:30;4.20;;;2.30;;
54539;SDS011;40438;52.992;18.604;2023-07-31T02:03:58;3.55;;;2.13;;
54539;SDS011;40438;52.992;18.604;2023-07-31T02:06:23;3.58;;;2.47;;
54539;SDS011;40438;52.992;18.604;2023-07-31T02:08:49;3.08;;;2.30;;
54539;SDS011;40438;52.992;18.604;2023-07-31T02:11:15;4.43;;;2.20;;
54539;SDS011;40438;52.992;18.604;2023-07-31T02:13:41;4.88;;;2.22;;
54539;SDS011;40438;52.992;18.604;2023-07-31T02:16:06;6.18;;;2.53;;
54539;SDS011;40438;52.992;18.604;2023-07-31T02:18:34;5.00;;;2.17;;
54539;SDS011;40438;52.992;18.604;2023-07-31T02:21:01;3.45;;;2.38;;
54539;SDS011;40438;52.992;18.604;2023-07-31T02:23:26;4.85;;;2.08;;
54539;SDS011;40438;52.992;18.604;2023-07-31T02:25:52;4.07;;;2.40;;
54539;SDS011;40438;52.992;18.604;2023-07-31T02:28:18;7.10;;;2.78;;
54539;SDS011;40438;52.992;18.604;2023-07-31T02:30:44;7.10;;;2.65;;
54539;SDS011;40438;52.992;18.604;2023-07-31T02:33:10;3.47;;;2.25;;
54539;SDS011;40438;52.992;18.604;2023-07-31T02:35:37;4.47;;;2.80;;
54539;SDS011;40438;52.992;18.604;2023-07-31T02:38:03;4.28;;;2.40;;
54539;SDS011;40438;52.992;18.604;2023-07-31T02:40:29;4.13;;;2.28;;
54539;SDS011;40438;52.992;18.604;2023-07-31T02:42:55;3.35;;;2.55;;
54539;SDS011;40438;52.992;18.604;2023-07-31T02:45:20;3.75;;;2.60;;
54539;SDS011;40438;52.992;18.604;2023-07-31T02:47:46;3.65;;;2.17;;
54539;SDS011;40438;52.992;18.604;2023-07-31T02:50:12;7.13;;;2.83;;
54539;SDS011;40438;52.992;18.604;2023-07-31T02:52:39;3.40;;;2.30;;
54539;SDS011;40438;52.992;18.604;2023-07-31T02:55:05;2.88;;;2.22;;
54539;SDS011;40438;52.992;18.604;2023-07-31T02:57:31;5.60;;;2.03;;
54539;SDS011;40438;52.992;18.604;2023-07-31T02:59:57;3.38;;;2.33;;
54539;SDS011;40438;52.992;18.604;2023-07-31T03:02:23;4.90;;;2.47;;
54539;SDS011;40438;52.992;18.604;2023-07-31T03:04:49;4.30;;;2.60;;
54539;SDS011;40438;52.992;18.604;2023-07-31T03:07:14;4.38;;;2.50;;
54539;SDS011;40438;52.992;18.604;2023-07-31T03:09:42;3.83;;;2.53;;
54539;SDS011;40438;52.992;18.604;2023-07-31T03:12:08;3.38;;;2.28;;
54539;SDS011;40438;52.992;18.604;2023-07-31T03:14:34;7.28;;;2.42;;
54539;SDS011;40438;52.992;18.604;2023-07-31T03:17:00;4.90;;;2.40;;
54539;SDS011;40438;52.992;18.604;2023-07-31T03:19:25;5.32;;;2.60;;
54539;SDS011;40438;52.992;18.604;2023-07-31T03:21:51;3.35;;;2.65;;
54539;SDS011;40438;52.992;18.604;2023-07-31T03:24:17;4.63;;;2.40;;
54539;SDS011;40438;52.992;18.604;2023-07-31T03:26:44;4.13;;;2.42;;
54539;SDS011;40438;52.992;18.604;2023-07-31T03:29:10;3.58;;;2.30;;
54539;SDS011;40438;52.992;18.604;2023-07-31T03:31:36;4.35;;;2.70;;
54539;SDS011;40438;52.992;18.604;2023-07-31T03:34:01;5.38;;;2.65;;
54539;SDS011;40438;52.992;18.604;2023-07-31T03:36:27;4.53;;;2.58;;
54539;SDS011;40438;52.992;18.604;2023-07-31T03:38:53;8.15;;;2.55;;
54539;SDS011;40438;52.992;18.604;2023-07-31T03:41:19;8.85;;;2.53;;
54539;SDS011;40438;52.992;18.604;2023-07-31T03:43:50;5.13;;;2.45;;
54539;SDS011;40438;52.992;18.604;2023-07-31T03:46:16;4.30;;;2.70;;
54539;SDS011;40438;52.992;18.604;2023-07-31T03:48:42;5.93;;;2.58;;
54539;SDS011;40438;52.992;18.604;2023-07-31T03:51:08;5.00;;;2.70;;
54539;SDS011;40438;52.992;18.604;2023-07-31T03:53:34;5.82;;;2.35;;
54539;SDS011;40438;52.992;18.604;2023-07-31T03:55:59;5.78;;;2.80;;
54539;SDS011;40438;52.992;18.604;2023-07-31T03:58:25;5.72;;;2.83;;
54539;SDS011;40438;52.992;18.604;2023-07-31T04:00:52;6.22;;;2.70;;
54539;SDS011;40438;52.992;18.604;2023-07-31T04:03:18;4.10;;;2.75;;
54539;SDS011;40438;52.992;18.604;2023-07-31T04:05:44;6.47;;;2.60;;
54539;SDS011;40438;52.992;18.604;2023-07-31T04:08:10;3.35;;;2.70;;
54539;SDS011;40438;52.992;18.604;2023-07-31T04:10:35;5.15;;;2.65;;
54539;SDS011;40438;52.992;18.604;2023-07-31T04:13:01;5.20;;;2.50;;
54539;SDS011;40438;52.992;18.604;2023-07-31T04:15:27;6.25;;;2.65;;
54539;SDS011;40438;52.992;18.604;2023-07-31T04:17:54;8.10;;;2.88;;
54539;SDS011;40438;52.992;18.604;2023-07-31T04:20:20;4.13;;;2.90;;
54539;SDS011;40438;52.992;18.604;2023-07-31T04:22:46;4.22;;;3.15;;
54539;SDS011;40438;52.992;18.604;2023-07-31T04:25:11;5.22;;;2.70;;
54539;SDS011;40438;52.992;18.604;2023-07-31T04:27:37;4.22;;;2.90;;
54539;SDS011;40438;52.992;18.604;2023-07-31T04:30:03;4.88;;;2.22;;
54539;SDS011;40438;52.992;18.604;2023-07-31T04:32:30;4.60;;;2.67;;
54539;SDS011;40438;52.992;18.604;2023-07-31T04:34:57;6.28;;;3.35;;
54539;SDS011;40438;52.992;18.604;2023-07-31T04:37:23;6.00;;;3.33;;
54539;SDS011;40438;52.992;18.604;2023-07-31T04:39:49;5.88;;;2.40;;
54539;SDS011;40438;52.992;18.604;2023-07-31T04:42:14;7.53;;;2.83;;
54539;SDS011;40438;52.992;18.604;2023-07-31T04:44:40;4.05;;;2.50;;
54539;SDS011;40438;52.992;18.604;2023-07-31T04:47:06;5.05;;;2.75;;
54539;SDS011;40438;52.992;18.604;2023-07-31T04:49:32;4.03;;;2.60;;
54539;SDS011;40438;52.992;18.604;2023-07-31T04:51:59;2.17;;;1.90;;
54539;SDS011;40438;52.992;18.604;2023-07-31T04:54:25;5.13;;;2.65;;
54539;SDS011;40438;52.992;18.604;2023-07-31T04:56:51;3.88;;;2.50;;
54539;SDS011;40438;52.992;18.604;2023-07-31T04:59:16;6.88;;;2.45;;
54539;SDS011;40438;52.992;18.604;2023-07-31T05:01:42;8.02;;;2.90;;
54539;SDS011;40438;52.992;18.604;2023-07-31T05:04:08;7.70;;;2.40;;
54539;SDS011;40438;52.992;18.604;2023-07-31T05:06:34;7.68;;;2.60;;
54539;SDS011;40438;52.992;18.604;2023-07-31T05:09:01;4.70;;;2.40;;
54539;SDS011;40438;52.992;18.604;2023-07-31T05:11:26;5.15;;;2.47;;
54539;SDS011;40438;52.992;18.604;2023-07-31T05:13:52;8.45;;;2.70;;
54539;SDS011;40438;52.992;18.604;2023-07-31T05:16:18;5.05;;;2.42;;
54539;SDS011;40438;52.992;18.604;2023-07-31T05:18:44;7.05;;;2.35;;
54539;SDS011;40438;52.992;18.604;2023-07-31T05:21:10;4.53;;;2.60;;
54539;SDS011;40438;52.992;18.604;2023-07-31T05:23:35;5.68;;;2.28;;
54539;SDS011;40438;52.992;18.604;2023-07-31T05:26:06;4.88;;;2.15;;
54539;SDS011;40438;52.992;18.604;2023-07-31T05:28:33;6.60;;;2.03;;
54539;SDS011;40438;52.992;18.604;2023-07-31T05:30:59;4.78;;;2.78;;
54539;SDS011;40438;52.992;18.604;2023-07-31T05:33:25;5.30;;;2.25;;
54539;SDS011;40438;52.992;18.604;2023-07-31T05:35:51;4.88;;;3.55;;
54539;SDS011;40438;52.992;18.604;2023-07-31T05:38:17;5.93;;;2.53;;
54539;SDS011;40438;52.992;18.604;2023-07-31T05:40:42;3.53;;;2.55;;
54539;SDS011;40438;52.992;18.604;2023-07-31T05:43:10;6.55;;;2.40;;
54539;SDS011;40438;52.992;18.604;2023-07-31T05:45:36;3.90;;;2.42;;
54539;SDS011;40438;52.992;18.604;2023-07-31T05:48:02;3.30;;;2.40;;
54539;SDS011;40438;52.992;18.604;2023-07-31T05:50:28;9.50;;;2.78;;
54539;SDS011;40438;52.992;18.604;2023-07-31T05:52:54;5.85;;;2.75;;
54539;SDS011;40438;52.992;18.604;2023-07-31T05:55:19;7.38;;;3.72;;
54539;SDS011;40438;52.992;18.604;2023-07-31T05:57:45;3.97;;;2.15;;
54539;SDS011;40438;52.992;18.604;2023-07-31T06:00:13;6.38;;;2.35;;
54539;SDS011;40438;52.992;18.604;2023-07-31T06:02:39;5.55;;;2.60;;
54539;SDS011;40438;52.992;18.604;2023-07-31T06:05:05;7.82;;;2.15;;
54539;SDS011;40438;52.992;18.604;2023-07-31T06:11:12;4.82;;;2.20;;
54539;SDS011;40438;52.992;18.604;2023-07-31T06:13:37;4.85;;;2.40;;
54539;SDS011;40438;52.992;18.604;2023-07-31T06:16:04;3.10;;;2.25;;
54539;SDS011;40438;52.992;18.604;2023-07-31T06:18:30;5.32;;;2.40;;
54539;SDS011;40438;52.992;18.604;2023-07-31T06:20:55;4.13;;;2.20;;
54539;SDS011;40438;52.992;18.604;2023-07-31T06:23:21;3.88;;;2.00;;
54539;SDS011;40438;52.992;18.604;2023-07-31T06:25:47;6.15;;;2.08;;
54539;SDS011;40438;52.992;18.604;2023-07-31T06:28:13;5.82;;;2.85;;
54539;SDS011;40438;52.992;18.604;2023-07-31T06:30:38;5.82;;;1.92;;
54539;SDS011;40438;52.992;18.604;2023-07-31T06:33:05;4.10;;;2.05;;
54539;SDS011;40438;52.992;18.604;2023-07-31T06:35:31;5.15;;;2.05;;
54539;SDS011;40438;52.992;18.604;2023-07-31T06:37:56;3.35;;;2.08;;
54539;SDS011;40438;52.992;18.604;2023-07-31T06:40:22;6.20;;;3.45;;
54539;SDS011;40438;52.992;18.604;2023-07-31T06:42:47;2.33;;;1.80;;
54539;SDS011;40438;52.992;18.604;2023-07-31T06:45:13;9.75;;;2.15;;
54539;SDS011;40438;52.992;18.604;2023-07-31T06:47:39;8.15;;;2.90;;
54539;SDS011;40438;52.992;18.604;2023-07-31T06:50:07;2.22;;;1.60;;
54539;SDS011;40438;52.992;18.604;2023-07-31T06:52:33;6.38;;;2.08;;
54539;SDS011;40438;52.992;18.604;2023-07-31T06:55:02;2.72;;;1.83;;
54539;SDS011;40438;52.992;18.604;2023-07-31T06:57:29;4.20;;;1.92;;
54539;SDS011;40438;52.992;18.604;2023-07-31T06:59:54;3.50;;;1.80;;
54539;SDS011;40438;52.992;18.604;2023-07-31T07:02:20;2.53;;;1.77;;
54539;SDS011;40438;52.992;18.604;2023-07-31T07:04:46;4.75;;;1.67;;
54539;SDS011;40438;52.992;18.604;2023-07-31T07:07:13;8.68;;;1.92;;
54539;SDS011;40438;52.992;18.604;2023-07-31T07:09:38;2.60;;;1.80;;
54539;SDS011;40438;52.992;18.604;2023-07-31T07:12:04;2.63;;;1.58;;
54539;SDS011;40438;52.992;18.604;2023-07-31T07:14:30;3.13;;;1.27;;
54539;SDS011;40438;52.992;18.604;2023-07-31T07:16:56;3.92;;;1.48;;
54539;SDS011;40438;52.992;18.604;2023-07-31T07:19:21;7.40;;;1.42;;
54539;SDS011;40438;52.992;18.604;2023-07-31T07:21:47;5.53;;;1.38;;
54539;SDS011;40438;52.992;18.604;2023-07-31T07:24:14;3.13;;;1.27;;
54539;SDS011;40438;52.992;18.604;2023-07-31T07:26:40;2.63;;;1.55;;
54539;SDS011;40438;52.992;18.604;2023-07-31T07:29:05;3.35;;;1.45;;
54539;SDS011;40438;52.992;18.604;2023-07-31T07:31:31;2.00;;;1.73;;
54539;SDS011;40438;52.992;18.604;2023-07-31T07:33:56;3.28;;;1.67;;
54539;SDS011;40438;52.992;18.604;2023-07-31T07:36:22;4.45;;;1.48;;
54539;SDS011;40438;52.992;18.604;2023-07-31T07:38:48;3.88;;;1.52;;
54539;SDS011;40438;52.992;18.604;2023-07-31T07:41:15;2.25;;;1.40;;
54539;SDS011;40438;52.992;18.604;2023-07-31T07:43:40;2.22;;;1.27;;
54539;SDS011;40438;52.992;18.604;2023-07-31T07:46:06;3.15;;;1.35;;
54539;SDS011;40438;52.992;18.604;2023-07-31T07:48:31;3.58;;;1.17;;
54539;SDS011;40438;52.992;18.604;2023-07-31T07:50:57;2.67;;;1.02;;
54539;SDS011;40438;52.992;18.604;2023-07-31T07:53:22;3.35;;;1.40;;
54539;SDS011;40438;52.992;18.604;2023-07-31T07:55:48;1.77;;;0.98;;
54539;SDS011;40438;52.992;18.604;2023-07-31T07:58:15;0.98;;;0.90;;
54539;SDS011;40438;52.992;18.604;2023-07-31T08:00:41;5.05;;;1.30;;
54539;SDS011;40438;52.992;18.604;2023-07-31T08:03:06;4.05;;;1.30;;
54539;SDS011;40438;52.992;18.604;2023-07-31T08:05:32;5.45;;;1.13;;
54539;SDS011;40438;52.992;18.604;2023-07-31T08:07:57;2.15;;;1.05;;
54539;SDS011;40438;52.992;18.604;2023-07-31T08:10:23;4.00;;;1.10;;
54539;SDS011;40438;52.992;18.604;2023-07-31T08:12:49;3.65;;;0.82;;
54539;SDS011;40438;52.992;18.604;2023-07-31T08:15:15;1.75;;;0.93;;
54539;SDS011;40438;52.992;18.604;2023-07-31T08:17:41;2.17;;;0.90;;
54539;SDS011;40438;52.992;18.604;2023-07-31T08:20:07;3.13;;;0.90;;
54539;SDS011;40438;52.992;18.604;2023-07-31T08:22:33;2.83;;;1.05;;
54539;SDS011;40438;52.992;18.604;2023-07-31T08:24:59;3.97;;;0.82;;
54539;SDS011;40438;52.992;18.604;2023-07-31T08:27:25;3.25;;;1.00;;
54539;SDS011;40438;52.992;18.604;2023-07-31T08:29:51;2.25;;;1.00;;
54539;SDS011;40438;52.992;18.604;2023-07-31T08:32:18;1.48;;;0.77;;
54539;SDS011;40438;52.992;18.604;2023-07-31T08:34:44;1.67;;;0.95;;
54539;SDS011;40438;52.992;18.604;2023-07-31T08:37:09;5.28;;;0.80;;
54539;SDS011;40438;52.992;18.604;2023-07-31T08:39:35;1.98;;;0.80;;
54539;SDS011;40438;52.992;18.604;2023-07-31T08:42:01;1.00;;;0.68;;
54539;SDS011;40438;52.992;18.604;2023-07-31T08:44:26;3.72;;;0.95;;
54539;SDS011;40438;52.992;18.604;2023-07-31T08:46:52;5.60;;;0.90;;
54539;SDS011;40438;52.992;18.604;2023-07-31T08:49:20;2.42;;;1.02;;
54539;SDS011;40438;52.992;18.604;2023-07-31T08:51:48;5.70;;;1.38;;
54539;SDS011;40438;52.992;18.604;2023-07-31T08:54:14;3.10;;;1.10;;
54539;SDS011;40438;52.992;18.604;2023-07-31T08:56:40;2.78;;;1.15;;
54539;SDS011;40438;52.992;18.604;2023-07-31T08:59:07;3.55;;;1.20;;
54539;SDS011;40438;52.992;18.604;2023-07-31T09:01:35;6.38;;;1.10;;
54539;SDS011;40438;52.992;18.604;2023-07-31T09:04:03;1.90;;;1.15;;
54539;SDS011;40438;52.992;18.604;2023-07-31T09:06:31;2.63;;;1.20;;
54539;SDS011;40438;52.992;18.604;2023-07-31T09:08:58;5.15;;;0.90;;
54539;SDS011;40438;52.992;18.604;2023-07-31T09:11:24;3.25;;;1.25;;
54539;SDS011;40438;52.992;18.604;2023-07-31T09:13:50;3.55;;;1.17;;
54539;SDS011;40438;52.992;18.604;2023-07-31T09:16:17;1.30;;;0.88;;
54539;SDS011;40438;52.992;18.604;2023-07-31T09:18:52;3.90;;;1.30;;
54539;SDS011;40438;52.992;18.604;2023-07-31T09:21:19;3.20;;;1.23;;
54539;SDS011;40438;52.992;18.604;2023-07-31T09:23:47;3.58;;;1.17;;
54539;SDS011;40438;52.992;18.604;2023-07-31T09:26:13;3.80;;;1.27;;
54539;SDS011;40438;52.992;18.604;2023-07-31T09:28:54;2.65;;;1.40;;
54539;SDS011;40438;52.992;18.604;2023-07-31T09:31:23;2.15;;;1.15;;
54539;SDS011;40438;52.992;18.604;2023-07-31T09:33:57;1.85;;;1.00;;
54539;SDS011;40438;52.992;18.604;2023-07-31T09:36:22;5.38;;;1.45;;
54539;SDS011;40438;52.992;18.604;2023-07-31T09:38:49;4.30;;;1.40;;
54539;SDS011;40438;52.992;18.604;2023-07-31T09:41:15;3.17;;;1.60;;
54539;SDS011;40438;52.992;18.604;2023-07-31T09:43:41;4.72;;;1.98;;
54539;SDS011;40438;52.992;18.604;2023-07-31T09:46:12;6.05;;;1.80;;
54539;SDS011;40438;52.992;18.604;2023-07-31T09:48:38;6.28;;;1.60;;
54539;SDS011;40438;52.992;18.604;2023-07-31T09:51:04;3.08;;;1.50;;
54539;SDS011;40438;52.992;18.604;2023-07-31T09:53:30;2.95;;;1.77;;
54539;SDS011;40438;52.992;18.604;2023-07-31T09:55:57;4.05;;;2.40;;
54539;SDS011;40438;52.992;18.604;2023-07-31T09:58:23;3.70;;;1.52;;
54539;SDS011;40438;52.992;18.604;2023-07-31T10:00:53;3.70;;;1.50;;
54539;SDS011;40438;52.992;18.604;2023-07-31T10:03:19;3.38;;;1.80;;
54539;SDS011;40438;52.992;18.604;2023-07-31T10:05:45;2.53;;;1.75;;
54539;SDS011;40438;52.992;18.604;2023-07-31T10:08:15;3.60;;;1.70;;
54539;SDS011;40438;52.992;18.604;2023-07-31T10:10:43;3.90;;;1.45;;
54539;SDS011;40438;52.992;18.604;2023-07-31T10:13:11;4.25;;;1.67;;
54539;SDS011;40438;52.992;18.604;2023-07-31T10:15:37;4.78;;;1.35;;
54539;SDS011;40438;52.992;18.604;2023-07-31T10:18:04;4.38;;;1.52;;
54539;SDS011;40438;52.992;18.604;2023-07-31T10:20:31;4.72;;;1.83;;
54539;SDS011;40438;52.992;18.604;2023-07-31T10:22:57;5.13;;;1.70;;
54539;SDS011;40438;52.992;18.604;2023-07-31T10:25:23;5.25;;;1.70;;
54539;SDS011;40438;52.992;18.604;2023-07-31T10:27:49;6.68;;;1.80;;
54539;SDS011;40438;52.992;18.604;2023-07-31T10:30:19;3.97;;;1.75;;
54539;SDS011;40438;52.992;18.604;2023-07-31T10:32:47;5.63;;;1.75;;
54539;SDS011;40438;52.992;18.604;2023-07-31T10:35:14;3.13;;;1.95;;
54539;SDS011;40438;52.992;18.604;2023-07-31T10:37:41;2.28;;;1.80;;
54539;SDS011;40438;52.992;18.604;2023-07-31T10:40:10;4.95;;;2.10;;
54539;SDS011;40438;52.992;18.604;2023-07-31T10:42:37;8.70;;;1.63;;
54539;SDS011;40438;52.992;18.604;2023-07-31T10:45:10;5.05;;;2.33;;
54539;SDS011;40438;52.992;18.604;2023-07-31T10:47:40;4.85;;;2.65;;
54539;SDS011;40438;52.992;18.604;2023-07-31T10:50:12;8.45;;;2.88;;
54539;SDS011;40438;52.992;18.604;2023-07-31T10:52:48;5.45;;;2.67;;
54539;SDS011;40438;52.992;18.604;2023-07-31T10:55:24;6.47;;;2.88;;
54539;SDS011;40438;52.992;18.604;2023-07-31T10:57:52;5.10;;;3.00;;
54539;SDS011;40438;52.992;18.604;2023-07-31T11:00:19;6.45;;;2.92;;
54539;SDS011;40438;52.992;18.604;2023-07-31T11:03:01;4.38;;;2.45;;
54539;SDS011;40438;52.992;18.604;2023-07-31T11:05:40;7.65;;;2.75;;
54539;SDS011;40438;52.992;18.604;2023-07-31T11:08:14;4.80;;;2.88;;
54539;SDS011;40438;52.992;18.604;2023-07-31T11:10:41;7.38;;;3.30;;
54539;SDS011;40438;52.992;18.604;2023-07-31T11:13:07;6.50;;;3.63;;
54539;SDS011;40438;52.992;18.604;2023-07-31T11:15:33;7.80;;;3.60;;
54539;SDS011;40438;52.992;18.604;2023-07-31T11:18:01;7.35;;;3.05;;
54539;SDS011;40438;52.992;18.604;2023-07-31T11:20:28;6.38;;;3.22;;
54539;SDS011;40438;52.992;18.604;2023-07-31T11:22:54;6.90;;;3.00;;
54539;SDS011;40438;52.992;18.604;2023-07-31T11:25:23;4.82;;;3.03;;
54539;SDS011;40438;52.992;18.604;2023-07-31T11:27:49;4.40;;;2.70;;
54539;SDS011;40438;52.992;18.604;2023-07-31T11:30:14;4.10;;;2.95;;
54539;SDS011;40438;52.992;18.604;2023-07-31T11:32:40;4.00;;;2.75;;
54539;SDS011;40438;52.992;18.604;2023-07-31T11:35:11;6.20;;;2.67;;
54539;SDS011;40438;52.992;18.604;2023-07-31T11:37:40;3.97;;;2.58;;
54539;SDS011;40438;52.992;18.604;2023-07-31T11:40:07;4.47;;;2.47;;
54539;SDS011;40438;52.992;18.604;2023-07-31T11:42:34;4.70;;;2.83;;
54539;SDS011;40438;52.992;18.604;2023-07-31T11:45:01;6.07;;;2.10;;
54539;SDS011;40438;52.992;18.604;2023-07-31T11:47:27;3.83;;;2.45;;
54539;SDS011;40438;52.992;18.604;2023-07-31T11:49:53;5.95;;;1.90;;
54539;SDS011;40438;52.992;18.604;2023-07-31T11:52:21;6.45;;;2.28;;
54539;SDS011;40438;52.992;18.604;2023-07-31T11:54:48;3.75;;;2.00;;
54539;SDS011;40438;52.992;18.604;2023-07-31T11:57:14;5.80;;;1.98;;
54539;SDS011;40438;52.992;18.604;2023-07-31T11:59:40;4.60;;;1.63;;
54539;SDS011;40438;52.992;18.604;2023-07-31T12:02:07;2.78;;;1.40;;
54539;SDS011;40438;52.992;18.604;2023-07-31T12:04:33;2.00;;;1.33;;
54539;SDS011;40438;52.992;18.604;2023-07-31T12:07:00;5.22;;;1.70;;
54539;SDS011;40438;52.992;18.604;2023-07-31T12:09:27;4.78;;;1.42;;
54539;SDS011;40438;52.992;18.604;2023-07-31T12:11:53;5.07;;;1.70;;
54539;SDS011;40438;52.992;18.604;2023-07-31T12:14:22;3.45;;;1.50;;
54539;SDS011;40438;52.992;18.604;2023-07-31T12:16:52;5.68;;;1.60;;
54539;SDS011;40438;52.992;18.604;2023-07-31T12:19:19;1.65;;;1.35;;
54539;SDS011;40438;52.992;18.604;2023-07-31T12:21:45;4.03;;;1.25;;
54539;SDS011;40438;52.992;18.604;2023-07-31T12:24:10;3.22;;;1.38;;
54539;SDS011;40438;52.992;18.604;2023-07-31T12:26:37;4.25;;;1.70;;
54539;SDS011;40438;52.992;18.604;2023-07-31T12:29:05;3.78;;;1.63;;
54539;SDS011;40438;52.992;18.604;2023-07-31T12:31:33;4.30;;;1.60;;
54539;SDS011;40438;52.992;18.604;2023-07-31T12:33:59;2.20;;;1.38;;
54539;SDS011;40438;52.992;18.604;2023-07-31T12:36:25;4.00;;;1.73;;
54539;SDS011;40438;52.992;18.604;2023-07-31T12:38:51;2.97;;;1.90;;
54539;SDS011;40438;52.992;18.604;2023-07-31T12:41:17;6.25;;;2.00;;
54539;SDS011;40438;52.992;18.604;2023-07-31T12:43:45;3.20;;;1.83;;
54539;SDS011;40438;52.992;18.604;2023-07-31T12:46:11;3.78;;;1.90;;
54539;SDS011;40438;52.992;18.604;2023-07-31T12:48:37;2.42;;;1.80;;
54539;SDS011;40438;52.992;18.604;2023-07-31T12:51:03;3.83;;;2.28;;
54539;SDS011;40438;52.992;18.604;2023-07-31T12:53:29;2.88;;;1.80;;
54539;SDS011;40438;52.992;18.604;2023-07-31T12:55:55;3.63;;;1.58;;
54539;SDS011;40438;52.992;18.604;2023-07-31T12:58:22;7.45;;;2.05;;
54539;SDS011;40438;52.992;18.604;2023-07-31T13:00:49;2.60;;;1.90;;
54539;SDS011;40438;52.992;18.604;2023-07-31T13:03:15;3.17;;;1.67;;
54539;SDS011;40438;52.992;18.604;2023-07-31T13:05:41;4.03;;;1.90;;
54539;SDS011;40438;52.992;18.604;2023-07-31T13:08:07;4.43;;;2.10;;
54539;SDS011;40438;52.992;18.604;2023-07-31T13:10:32;3.78;;;2.28;;
54539;SDS011;40438;52.992;18.604;2023-07-31T13:12:58;6.18;;;2.22;;
54539;SDS011;40438;52.992;18.604;2023-07-31T13:15:24;4.20;;;1.80;;
54539;SDS011;40438;52.992;18.604;2023-07-31T13:17:51;3.42;;;2.00;;
54539;SDS011;40438;52.992;18.604;2023-07-31T13:20:17;3.53;;;2.42;;
54539;SDS011;40438;52.992;18.604;2023-07-31T13:22:43;4.70;;;2.30;;
54539;SDS011;40438;52.992;18.604;2023-07-31T13:25:08;2.55;;;1.80;;
54539;SDS011;40438;52.992;18.604;2023-07-31T13:27:34;3.80;;;1.73;;
54539;SDS011;40438;52.992;18.604;2023-07-31T13:30:01;3.00;;;2.00;;
54539;SDS011;40438;52.992;18.604;2023-07-31T13:32:27;1.85;;;1.70;;
54539;SDS011;40438;52.992;18.604;2023-07-31T13:34:54;2.58;;;1.63;;
54539;SDS011;40438;52.992;18.604;2023-07-31T13:37:19;4.78;;;1.58;;
54539;SDS011;40438;52.992;18.604;2023-07-31T13:39:45;2.47;;;1.75;;
54539;SDS011;40438;52.992;18.604;2023-07-31T13:42:11;2.60;;;1.75;;
54539;SDS011;40438;52.992;18.604;2023-07-31T13:44:37;3.85;;;1.83;;
54539;SDS011;40438;52.992;18.604;2023-07-31T13:47:03;2.20;;;1.50;;
54539;SDS011;40438;52.992;18.604;2023-07-31T13:49:29;1.88;;;1.58;;
54539;SDS011;40438;52.992;18.604;2023-07-31T13:51:56;4.55;;;1.58;;
54539;SDS011;40438;52.992;18.604;2023-07-31T13:54:22;1.65;;;1.40;;
54539;SDS011;40438;52.992;18.604;2023-07-31T13:56:48;2.60;;;1.80;;
54539;SDS011;40438;52.992;18.604;2023-07-31T13:59:14;2.08;;;1.58;;
54539;SDS011;40438;52.992;18.604;2023-07-31T14:01:40;2.50;;;1.52;;
54539;SDS011;40438;52.992;18.604;2023-07-31T14:04:05;2.05;;;1.40;;
54539;SDS011;40438;52.992;18.604;2023-07-31T14:06:31;3.15;;;1.50;;
54539;SDS011;40438;52.992;18.604;2023-07-31T14:08:59;2.47;;;1.60;;
54539;SDS011;40438;52.992;18.604;2023-07-31T14:11:24;1.70;;;1.60;;
54539;SDS011;40438;52.992;18.604;2023-07-31T14:13:50;2.53;;;1.60;;
54539;SDS011;40438;52.992;18.604;2023-07-31T14:16:16;2.05;;;1.20;;
54539;SDS011;40438;52.992;18.604;2023-07-31T14:18:42;2.42;;;1.20;;
54539;SDS011;40438;52.992;18.604;2023-07-31T14:21:08;2.92;;;1.25;;
54539;SDS011;40438;52.992;18.604;2023-07-31T14:23:34;2.47;;;1.40;;
54539;SDS011;40438;52.992;18.604;2023-07-31T14:26:01;3.55;;;1.70;;
54539;SDS011;40438;52.992;18.604;2023-07-31T14:28:27;1.88;;;1.58;;
54539;SDS011;40438;52.992;18.604;2023-07-31T14:30:53;2.53;;;1.23;;
54539;SDS011;40438;52.992;18.604;2023-07-31T14:33:18;8.02;;;1.85;;